Time;durP1;ratioP1;P1;durP2;ratioP2;P2;SDS_P1;SDS_P2;PMS_P1;PMS_P2;Temp;Humidity;BMP_temperature;BMP_pressure;BME280_temperature;BME280_humidity;BME280_pressure;Samples;Min_cycle;Max_cycle;Signal;HPM_P1;HPM_P2
2024/04/14 00:01:07;;;;;;;6.45;2.67;;;;;;;15.64;50.10;94721.75;5541272;26;20013;-77
2024/04/14 00:03:33;;;;;;;7.13;2.75;;;;;;;15.66;50.30;94727.59;5541052;25;20103;-78
2024/04/14 00:05:58;;;;;;;8.50;3.05;;;;;;;15.64;49.93;94717.16;5541489;25;19982;-79
2024/04/14 00:08:24;;;;;;;10.32;2.60;;;;;;;15.64;49.63;94717.16;5541440;26;19990;-78
2024/04/14 00:10:50;;;;;;;11.57;2.65;;;;;;;15.62;49.84;94719.38;5541840;26;19992;-78
2024/04/14 00:13:15;;;;;;;7.50;2.55;;;;;;;15.70;49.88;94711.59;5541071;26;20197;-79
2024/04/14 00:15:41;;;;;;;6.82;2.55;;;;;;;15.71;50.11;94715.84;5541449;25;20022;-80
2024/04/14 00:18:06;;;;;;;14.35;2.70;;;;;;;15.72;49.99;94715.56;5541386;25;20096;-77
2024/04/14 00:20:32;;;;;;;8.98;3.63;;;;;;;15.73;50.15;94710.97;5541528;25;20195;-77
2024/04/14 00:22:59;;;;;;;7.65;2.25;;;;;;;15.75;49.51;94706.88;5541382;25;19985;-78
2024/04/14 00:25:24;;;;;;;3.88;2.08;;;;;;;15.73;49.49;94697.53;5541258;25;20042;-78
2024/04/14 00:27:50;;;;;;;8.38;2.35;;;;;;;15.69;49.81;94697.34;5540832;26;19989;-78
2024/04/14 00:30:15;;;;;;;8.70;2.72;;;;;;;15.67;50.32;94704.97;5509514;26;19981;-78
2024/04/14 00:32:40;;;;;;;5.80;2.15;;;;;;;15.68;50.45;94703.84;5540929;25;20100;-78
2024/04/14 00:35:06;;;;;;;8.00;2.22;;;;;;;15.63;50.31;94704.84;5509336;25;19982;-78
2024/04/14 00:37:31;;;;;;;7.93;2.08;;;;;;;15.57;50.84;94711.50;5509204;26;19986;-78
2024/04/14 00:39:57;;;;;;;10.10;3.03;;;;;;;15.58;50.32;94706.91;5540807;25;20128;-77
2024/04/14 00:42:22;;;;;;;5.72;2.10;;;;;;;15.58;50.69;94705.00;5540832;25;19989;-78
2024/04/14 00:44:47;;;;;;;11.27;2.38;;;;;;;15.52;50.72;94700.16;5540638;26;19997;-78
2024/04/14 00:47:13;;;;;;;6.30;2.13;;;;;;;15.53;50.40;94699.03;5539626;26;19985;-78
2024/04/14 00:49:40;;;;;;;7.28;2.00;;;;;;;15.54;50.33;94698.72;5540445;26;19988;-78
2024/04/14 00:52:09;;;;;;;5.22;1.85;;;;;;;15.50;50.59;94694.31;5540895;25;20045;-78
2024/04/14 00:54:36;;;;;;;5.38;2.25;;;;;;;15.47;50.86;94697.63;5541418;25;19985;-78
2024/04/14 00:57:02;;;;;;;7.45;2.08;;;;;;;15.47;50.97;94698.44;5540846;25;20188;-78
2024/04/14 00:59:28;;;;;;;8.85;3.08;;;;;;;15.43;51.06;94697.50;5540738;26;19993;-79
2024/04/14 01:01:53;;;;;;;14.23;2.42;;;;;;;15.42;51.16;94702.06;5508770;26;20093;-79
2024/04/14 01:04:19;;;;;;;8.10;2.45;;;;;;;15.38;51.36;94697.69;5540601;25;19982;-78
2024/04/14 01:06:45;;;;;;;5.47;2.28;;;;;;;15.30;51.47;94701.19;5540641;25;20091;-78
2024/04/14 01:09:11;;;;;;;4.43;2.30;;;;;;;15.28;51.54;94690.75;5540595;26;19989;-78
2024/04/14 01:11:37;;;;;;;5.95;2.30;;;;;;;15.30;51.79;94698.50;5540912;25;20204;-78
2024/04/14 01:14:06;;;;;;;6.53;2.13;;;;;;;15.30;51.87;94693.13;5540592;25;19982;-78
2024/04/14 01:16:36;;;;;;;7.22;2.53;;;;;;;15.24;52.05;94704.06;5508714;26;19985;-78
2024/04/14 01:19:06;;;;;;;4.57;2.20;;;;;;;15.20;52.22;94696.94;5540210;25;20074;-78
2024/04/14 01:21:32;;;;;;;6.28;2.22;;;;;;;15.22;52.61;94695.53;5540809;25;19989;-78
2024/04/14 01:23:58;;;;;;;7.93;2.00;;;;;;;15.17;52.44;94690.34;5540094;26;19992;-79
2024/04/14 01:26:23;;;;;;;15.57;2.35;;;;;;;15.21;53.00;94698.53;5508777;26;19985;-78
2024/04/14 01:28:48;;;;;;;6.93;2.20;;;;;;;15.24;52.60;94698.69;5540229;25;20096;-78
2024/04/14 01:31:14;;;;;;;8.88;2.35;;;;;;;15.24;52.74;94698.69;5540587;26;19985;-78
2024/04/14 01:33:40;;;;;;;8.07;2.60;;;;;;;15.22;52.38;94695.53;5540600;26;19989;-78
2024/04/14 01:36:06;;;;;;;7.68;2.42;;;;;;;15.24;52.41;94687.13;5540324;25;20033;-79
2024/04/14 01:38:31;;;;;;;15.38;2.10;;;;;;;15.22;52.71;94687.47;5540389;26;20220;-79
2024/04/14 01:40:57;;;;;;;4.85;2.15;;;;;;;15.24;52.75;94698.69;5540007;25;19990;-79
2024/04/14 01:43:22;;;;;;;8.20;2.30;;;;;;;15.22;52.71;94694.72;5508456;26;20104;-79
2024/04/14 01:45:48;;;;;;;6.88;2.28;;;;;;;15.23;52.76;94693.63;5540006;25;19985;-79
2024/04/14 01:48:13;;;;;;;5.82;2.58;;;;;;;15.17;53.06;94698.38;5539974;26;19989;-79
2024/04/14 01:50:39;;;;;;;6.63;3.03;;;;;;;15.19;53.12;94706.13;5539640;26;20089;-79
2024/04/14 01:53:04;;;;;;;13.18;2.72;;;;;;;15.15;53.14;94694.47;5508198;26;19985;-79
2024/04/14 01:55:29;;;;;;;5.82;2.33;;;;;;;15.15;53.18;94694.47;5539703;25;19993;-78
2024/04/14 01:57:55;;;;;;;7.05;2.33;;;;;;;15.12;53.30;94695.88;5539816;26;20200;-79
2024/04/14 02:00:20;;;;;;;12.68;2.35;;;;;;;15.06;53.34;94691.78;5539600;25;20005;-79
2024/04/14 02:02:46;;;;;;;5.93;2.20;;;;;;;15.05;53.57;94696.38;5539656;25;19994;-78
2024/04/14 02:05:12;;;;;;;10.18;2.72;;;;;;;15.05;53.66;94687.53;5539650;26;19996;-79
2024/04/14 02:07:37;;;;;;;3.80;2.00;;;;;;;15.04;53.46;94694.81;5540114;26;20088;-79
2024/04/14 02:10:03;;;;;;;7.05;2.38;;;;;;;15.03;53.04;94695.91;5507849;26;19997;-78
2024/04/14 02:12:29;;;;;;;6.68;2.53;;;;;;;15.03;53.46;94693.22;5539548;26;20130;-79
2024/04/14 02:14:54;;;;;;;9.85;2.60;;;;;;;14.99;53.38;94692.28;5539634;25;20178;-79
2024/04/14 02:17:20;;;;;;;4.03;2.10;;;;;;;15.02;53.80;94696.22;5539662;25;19989;-79
2024/04/14 02:19:45;;;;;;;11.18;2.53;;;;;;;14.98;53.63;94698.78;5539844;25;19996;-79
2024/04/14 02:22:10;;;;;;;14.32;3.13;;;;;;;14.97;54.15;94705.22;5539387;25;19993;-79
2024/04/14 02:24:36;;;;;;;5.72;2.30;;;;;;;14.93;54.08;94698.94;5507962;26;20097;-79
2024/04/14 02:27:01;;;;;;;8.80;2.55;;;;;;;14.95;53.95;94712.81;5539401;26;19982;-79
2024/04/14 02:29:27;;;;;;;10.40;2.60;;;;;;;14.95;54.03;94704.75;5539321;26;19982;-79
2024/04/14 02:31:52;;;;;;;9.98;2.50;;;;;;;14.99;54.51;94703.00;5539680;25;19982;-79
2024/04/14 02:34:18;;;;;;;11.63;3.28;;;;;;;14.97;55.20;94707.91;5539267;25;19989;-79
2024/04/14 02:36:43;;;;;;;5.07;3.17;;;;;;;14.95;55.84;94704.75;5539281;26;19993;-79
2024/04/14 02:39:08;;;;;;;5.57;2.92;;;;;;;14.90;56.54;94693.41;5539055;25;20096;-79
2024/04/14 02:41:35;;;;;;;5.32;3.17;;;;;;;14.86;56.74;94704.00;5539000;26;19986;-79
2024/04/14 02:44:02;;;;;;;7.80;3.72;;;;;;;14.81;56.83;94691.53;5538659;26;19996;-79
2024/04/14 02:46:27;;;;;;;6.28;3.17;;;;;;;14.58;56.80;94688.25;5539214;26;20085;-79
2024/04/14 02:48:52;;;;;;;3.88;2.60;;;;;;;14.55;56.34;94686.19;5538994;25;19992;-79
2024/04/14 02:51:18;;;;;;;9.63;3.30;;;;;;;14.51;56.09;94692.50;5538912;25;19992;-79
2024/04/14 02:53:44;;;;;;;10.18;2.47;;;;;;;14.49;56.25;94682.09;5538597;26;19997;-78
2024/04/14 02:56:09;;;;;;;15.35;2.38;;;;;;;14.47;55.90;94686.19;5538686;26;19989;-78
2024/04/14 02:58:35;;;;;;;10.15;2.60;;;;;;;14.43;56.37;94680.66;5538995;25;20037;-78
2024/04/14 03:01:01;;;;;;;9.73;2.78;;;;;;;14.36;56.36;94683.81;5538737;25;20088;-78
2024/04/14 03:03:26;;;;;;;8.32;2.90;;;;;;;14.40;56.31;94697.41;5538519;25;19992;-79
2024/04/14 03:06:05;;;;;;;9.80;3.33;;;;;;;14.35;56.46;94684.94;5507026;26;19986;-79
2024/04/14 03:08:31;;;;;;;8.77;3.30;;;;;;;14.32;57.07;94696.28;5538744;26;20097;-79
2024/04/14 03:10:59;;;;;;;10.80;3.20;;;;;;;14.30;57.62;94700.41;5540314;26;19996;-79
2024/04/14 03:13:25;;;;;;;9.50;3.50;;;;;;;14.27;58.07;94703.69;5542295;26;19990;-79
2024/04/14 03:15:54;;;;;;;11.48;3.40;;;;;;;14.25;58.79;94701.34;5542197;25;19996;-78
2024/04/14 03:18:19;;;;;;;14.23;4.20;;;;;;;14.13;58.78;94704.66;5542288;26;19989;-79
2024/04/14 03:20:59;;;;;;;13.48;4.10;;;;;;;14.11;59.13;94704.19;5542319;26;20045;-78
2024/04/14 03:23:26;;;;;;;6.85;3.83;;;;;;;14.09;59.34;94708.28;5542379;25;20037;-78
2024/04/14 03:25:52;;;;;;;14.55;4.47;;;;;;;14.04;59.53;94706.53;5541934;25;20030;-78
2024/04/14 03:28:20;;;;;;;8.30;3.72;;;;;;;14.03;59.28;94713.78;5542596;26;20050;-78
2024/04/14 03:30:46;;;;;;;7.80;3.97;;;;;;;14.00;59.96;94706.38;5542170;25;20092;-78
2024/04/14 03:33:11;;;;;;;14.35;4.47;;;;;;;13.97;60.02;94703.53;5542040;26;20006;-81
2024/04/14 03:35:37;;;;;;;11.52;4.40;;;;;;;13.95;60.39;94706.53;5542188;26;20188;-78
2024/04/14 03:38:02;;;;;;;12.32;4.40;;;;;;;13.92;60.48;94709.03;5542062;25;19981;-79
2024/04/14 03:40:28;;;;;;;11.80;4.20;;;;;;;13.88;60.85;94705.41;5541268;26;19997;-79
2024/04/14 03:42:53;;;;;;;13.15;4.10;;;;;;;13.82;61.89;94712.81;5541320;26;19996;-78
2024/04/14 03:45:22;;;;;;;11.95;4.60;;;;;;;13.74;61.84;94718.91;5541748;25;19996;-78
2024/04/14 03:47:47;;;;;;;11.57;4.82;;;;;;;13.66;62.13;94717.81;5542353;26;19989;-78
2024/04/14 03:50:13;;;;;;;18.48;4.70;;;;;;;13.61;62.04;94720.63;5541741;26;19993;-78
2024/04/14 03:52:38;;;;;;;13.65;5.13;;;;;;;13.55;62.38;94716.50;5510065;26;20201;-78
2024/04/14 03:55:04;;;;;;;8.48;5.00;;;;;;;13.51;62.49;94715.56;5542059;25;19992;-78
2024/04/14 03:57:29;;;;;;;13.25;5.35;;;;;;;13.41;63.10;94719.28;5541291;26;19992;-78
2024/04/14 03:59:55;;;;;;;14.57;4.72;;;;;;;13.37;63.27;94712.97;5541544;26;19985;-78
2024/04/14 04:02:20;;;;;;;10.23;5.82;;;;;;;13.34;63.40;94711.72;5541453;25;19997;-79
2024/04/14 04:04:45;;;;;;;10.30;5.88;;;;;;;13.28;63.78;94702.22;5509856;26;19997;-78
2024/04/14 04:07:11;;;;;;;21.48;5.20;;;;;;;13.25;64.16;94705.53;5541685;26;19985;-78
2024/04/14 04:09:36;;;;;;;9.88;5.13;;;;;;;13.23;64.36;94702.38;5541275;25;19995;-78
2024/04/14 04:12:02;;;;;;;10.02;5.10;;;;;;;13.20;64.73;94711.78;5541184;25;20202;-79
2024/04/14 04:14:28;;;;;;;12.75;5.28;;;;;;;13.18;64.75;94702.50;5541263;25;19985;-79
2024/04/14 04:16:53;;;;;;;14.20;4.97;;;;;;;13.18;65.26;94705.94;5541214;26;19993;-79
2024/04/14 04:19:19;;;;;;;8.95;5.13;;;;;;;13.16;65.02;94710.03;5509218;26;19992;-78
2024/04/14 04:21:44;;;;;;;15.80;5.38;;;;;;;13.18;65.08;94713.97;5539899;25;20138;-78
2024/04/14 04:24:10;;;;;;;12.90;5.47;;;;;;;13.19;65.40;94714.78;5540942;25;19997;-78
2024/04/14 04:26:35;;;;;;;12.52;5.70;;;;;;;13.20;65.05;94711.78;5541458;25;19985;-78
2024/04/14 04:29:01;;;;;;;8.40;5.05;;;;;;;13.21;65.64;94718.72;5541355;26;20030;-78
2024/04/14 04:31:26;;;;;;;14.35;6.03;;;;;;;13.23;65.94;94729.13;5541077;26;20042;-78
2024/04/14 04:33:51;;;;;;;11.45;6.82;;;;;;;13.20;65.82;94732.41;5509632;26;19993;-78
2024/04/14 04:36:17;;;;;;;16.90;6.63;;;;;;;13.17;66.28;94738.41;5541226;25;20204;-79
2024/04/14 04:38:46;;;;;;;18.58;7.75;;;;;;;13.16;66.59;94736.81;5541092;25;19998;-78
2024/04/14 04:41:11;;;;;;;16.80;8.45;;;;;;;13.16;66.52;94736.81;5540813;26;20104;-78
2024/04/14 04:43:39;;;;;;;20.25;8.07;;;;;;;13.14;66.42;94741.66;5541389;25;19982;-78
2024/04/14 04:46:04;;;;;;;14.25;7.32;;;;;;;13.17;66.46;94743.75;5541277;26;20041;-79
2024/04/14 04:48:30;;;;;;;24.85;7.97;;;;;;;13.23;66.25;94742.53;5540809;25;19997;-79
2024/04/14 04:50:56;;;;;;;15.88;8.43;;;;;;;13.23;66.00;94737.16;5541206;25;19994;-79
2024/04/14 04:53:22;;;;;;;12.10;7.63;;;;;;;13.27;66.46;94742.66;5540635;26;19982;-79
2024/04/14 04:55:47;;;;;;;12.02;7.18;;;;;;;13.30;64.43;94750.91;5540927;25;20001;-78
2024/04/14 04:58:13;;;;;;;17.25;8.10;;;;;;;13.33;64.60;94757.53;5540871;26;19985;-78
2024/04/14 05:00:39;;;;;;;16.13;7.63;;;;;;;13.37;64.34;94753.16;5540701;25;20810;-79
2024/04/14 05:03:05;;;;;;;10.30;7.45;;;;;;;13.40;64.24;94745.28;5540724;25;19992;-79
2024/04/14 05:05:30;;;;;;;13.52;7.30;;;;;;;13.46;64.26;94751.31;5540532;25;19986;-79
2024/04/14 05:07:56;;;;;;;14.85;7.28;;;;;;;13.52;63.85;94754.63;5540616;25;19985;-78
2024/04/14 05:10:22;;;;;;;15.20;6.55;;;;;;;13.59;63.04;94750.41;5540566;26;20042;-79
2024/04/14 05:12:47;;;;;;;14.20;6.43;;;;;;;13.57;63.10;94754.50;5540463;26;20001;-78
2024/04/14 05:15:13;;;;;;;11.57;7.15;;;;;;;13.60;63.65;94764.59;5540746;25;19988;-78
2024/04/14 05:17:38;;;;;;;15.30;6.80;;;;;;;13.57;63.61;94747.22;5540422;25;19985;-78
2024/04/14 05:20:04;;;;;;;15.75;8.48;;;;;;;13.61;63.90;94758.13;5540387;26;19988;-78
2024/04/14 05:22:30;;;;;;;14.27;6.57;;;;;;;13.65;64.45;94759.09;5540116;25;20223;-79
2024/04/14 05:24:55;;;;;;;14.25;7.30;;;;;;;13.70;64.30;94761.63;5540293;25;20200;-79
2024/04/14 05:27:20;;;;;;;10.70;7.03;;;;;;;13.70;65.00;94767.00;5540302;26;19998;-79
2024/04/14 05:29:46;;;;;;;15.73;7.70;;;;;;;13.71;64.43;94757.84;5540028;25;19993;-78
2024/04/14 05:32:12;;;;;;;12.43;7.15;;;;;;;13.68;64.01;94758.47;5539815;25;19985;-78
2024/04/14 05:34:38;;;;;;;16.08;7.20;;;;;;;13.72;64.11;94767.47;5508365;26;20000;-78
2024/04/14 05:37:03;;;;;;;13.60;6.80;;;;;;;13.74;64.29;94757.25;5540299;25;20116;-78
2024/04/14 05:39:31;;;;;;;14.60;7.00;;;;;;;13.79;64.09;94767.00;5540281;26;19989;-78
2024/04/14 05:41:57;;;;;;;14.63;7.22;;;;;;;13.85;64.06;94757.72;5539719;26;20053;-82
2024/04/14 05:44:22;;;;;;;15.52;7.45;;;;;;;13.94;64.47;94766.59;5539745;26;20005;-81
2024/04/14 05:46:47;;;;;;;20.35;7.53;;;;;;;14.03;64.37;94767.38;5539729;25;20041;-73
2024/04/14 05:49:13;;;;;;;19.30;8.18;;;;;;;14.03;64.59;94766.59;5539337;26;20090;-73
2024/04/14 05:51:38;;;;;;;20.17;7.68;;;;;;;14.16;64.47;94764.88;5539045;26;19981;-73
2024/04/14 05:54:04;;;;;;;13.80;7.65;;;;;;;14.32;64.23;94759.88;5539737;26;19988;-73
2024/04/14 05:56:29;;;;;;;15.50;7.38;;;;;;;14.45;63.15;94761.63;5538878;26;20044;-73
2024/04/14 05:58:55;;;;;;;12.60;7.45;;;;;;;14.52;63.65;94763.81;5539312;26;19992;-72
2024/04/14 06:01:20;;;;;;;13.35;7.82;;;;;;;14.59;63.00;94764.97;5539236;26;19985;-72
2024/04/14 06:03:46;;;;;;;9.60;6.63;;;;;;;14.70;62.33;94762.75;5539410;26;19996;-72
2024/04/14 06:06:12;;;;;;;17.42;7.18;;;;;;;14.79;61.69;94765.41;5507835;26;19985;-72
2024/04/14 06:08:38;;;;;;;13.73;7.40;;;;;;;14.86;60.40;94757.69;5539441;26;19989;-72
2024/04/14 06:11:04;;;;;;;23.60;6.47;;;;;;;14.89;60.13;94757.03;5539029;25;19982;-72
2024/04/14 06:13:30;;;;;;;12.23;6.82;;;;;;;14.95;60.00;94758.44;5507756;26;19989;-73
2024/04/14 06:15:55;;;;;;;17.30;7.18;;;;;;;15.05;59.91;94763.47;5539078;26;19985;-73
2024/04/14 06:18:21;;;;;;;14.70;7.75;;;;;;;15.13;60.20;94763.78;5538642;26;19982;-83
2024/04/14 06:20:46;;;;;;;16.30;6.53;;;;;;;15.21;59.32;94763.00;5539219;25;19993;-81
2024/04/14 06:23:12;;;;;;;15.00;6.57;;;;;;;15.25;58.83;94771.97;5539597;26;20014;-81
2024/04/14 06:25:38;;;;;;;23.10;6.80;;;;;;;15.29;58.29;94764.88;5540120;25;20053;-82
2024/04/14 06:28:04;;;;;;;12.50;6.97;;;;;;;15.33;58.41;94765.78;5538733;26;20089;-81
2024/04/14 06:30:29;;;;;;;10.25;6.60;;;;;;;15.32;58.76;94774.94;5539030;26;20037;-80
2024/04/14 06:32:55;;;;;;;12.40;6.53;;;;;;;15.41;59.67;94764.19;5538634;25;19985;-80
2024/04/14 06:35:20;;;;;;;19.25;7.32;;;;;;;15.51;59.31;94771.09;5539412;25;19985;-80
2024/04/14 06:37:48;;;;;;;15.43;7.40;;;;;;;15.63;58.99;94763.97;5539163;25;20076;-84
2024/04/14 06:40:14;;;;;;;20.50;7.32;;;;;;;15.73;58.88;94762.03;5507329;26;19982;-82
2024/04/14 06:42:39;;;;;;;26.13;7.40;;;;;;;15.84;59.51;94764.03;5507484;26;19993;-81
2024/04/14 06:45:05;;;;;;;16.55;6.40;;;;;;;15.93;59.49;94755.13;5539276;25;19982;-82
2024/04/14 06:47:31;;;;;;;17.38;7.57;;;;;;;16.01;58.10;94762.38;5542745;26;19988;-82
2024/04/14 06:49:56;;;;;;;13.70;6.60;;;;;;;16.04;57.25;94759.81;5542302;26;20104;-82
2024/04/14 06:52:22;;;;;;;10.13;6.32;;;;;;;16.10;57.33;94755.06;5510622;26;19997;-82
2024/04/14 06:54:47;;;;;;;36.90;6.63;;;;;;;16.21;56.77;94760.84;5542074;26;20126;-81
2024/04/14 06:57:13;;;;;;;13.25;6.20;;;;;;;16.34;56.31;94765.16;5542110;25;20006;-84
2024/04/14 06:59:38;;;;;;;20.35;7.05;;;;;;;16.47;56.42;94762.56;5541835;25;20092;-81
2024/04/14 07:02:04;;;;;;;13.32;5.85;;;;;;;16.57;55.80;94767.56;5542892;26;19985;-81
2024/04/14 07:04:29;;;;;;;15.15;5.35;;;;;;;16.66;53.94;94760.19;5542298;26;20037;-80
2024/04/14 07:06:55;;;;;;;10.93;4.88;;;;;;;16.70;54.09;94754.94;5542286;25;19985;-80
2024/04/14 07:09:20;;;;;;;11.70;5.85;;;;;;;16.76;54.53;94759.00;5541603;25;20084;-81
2024/04/14 07:11:45;;;;;;;9.75;5.40;;;;;;;16.83;55.18;94770.03;5542100;25;19997;-80
2024/04/14 07:14:11;;;;;;;16.00;6.13;;;;;;;16.91;55.85;94760.31;5542372;25;20031;-81
2024/04/14 07:16:36;;;;;;;8.75;5.75;;;;;;;17.01;55.67;94755.31;5542409;25;19985;-80
2024/04/14 07:19:02;;;;;;;9.38;5.30;;;;;;;17.11;53.19;94756.00;5542205;26;20280;-80
2024/04/14 07:21:28;;;;;;;11.93;4.85;;;;;;;17.21;53.28;94769.06;5541808;25;19999;-79
2024/04/14 07:23:53;;;;;;;12.95;4.45;;;;;;;17.29;53.03;94757.41;5541652;25;20196;-81
2024/04/14 07:26:18;;;;;;;11.77;4.97;;;;;;;17.37;53.06;94756.53;5542326;25;19998;-80
2024/04/14 07:28:44;;;;;;;15.93;5.25;;;;;;;17.43;52.85;94749.81;5542203;26;19981;-79
2024/04/14 07:31:09;;;;;;;14.52;5.30;;;;;;;17.56;51.99;94757.91;5541911;26;20005;-82
2024/04/14 07:33:35;;;;;;;8.88;4.78;;;;;;;17.61;50.93;94758.47;5541918;25;19981;-80
2024/04/14 07:36:01;;;;;;;12.88;4.30;;;;;;;17.69;50.38;94747.91;5541674;25;19982;-89
2024/04/14 07:38:27;;;;;;;11.13;5.32;;;;;;;17.74;51.38;94753.09;5541844;25;19986;-86
2024/04/14 07:40:52;;;;;;;14.60;4.78;;;;;;;17.78;50.79;94748.59;5541469;25;19985;-82
2024/04/14 07:43:17;;;;;;;13.98;4.70;;;;;;;17.82;50.00;94746.81;5537504;26;19992;-83
2024/04/14 07:45:43;;;;;;;13.88;4.88;;;;;;;17.84;49.96;94745.38;5538187;26;19989;-83
2024/04/14 07:48:08;;;;;;;10.15;4.30;;;;;;;17.89;49.85;94732.78;5538271;25;19982;-83
2024/04/14 07:50:35;;;;;;;11.95;4.55;;;;;;;17.93;49.62;94741.75;5539006;26;19992;-83
2024/04/14 07:53:01;;;;;;;7.95;3.97;;;;;;;18.01;49.62;94736.28;5539221;26;19981;-83
2024/04/14 07:55:26;;;;;;;11.48;4.00;;;;;;;18.12;49.81;94747.38;5538448;26;19992;-83
2024/04/14 07:57:52;;;;;;;9.65;4.25;;;;;;;18.20;49.13;94737.59;5537862;26;19985;-81
2024/04/14 08:00:17;;;;;;;12.32;4.13;;;;;;;18.27;48.86;94735.09;5506862;26;20000;-83
2024/04/14 08:02:43;;;;;;;11.50;4.63;;;;;;;18.35;49.12;94738.81;5538366;25;20226;-83
2024/04/14 08:05:08;;;;;;;7.53;3.78;;;;;;;18.40;48.49;94739.34;5538270;25;20010;-82
2024/04/14 08:07:33;;;;;;;11.32;4.30;;;;;;;18.44;48.42;94737.53;5538126;26;20089;-83
2024/04/14 08:10:09;;;;;;;11.50;3.67;;;;;;;18.56;47.97;94744.03;5540173;25;19989;-83
2024/04/14 08:13:16;;;;;;;14.45;4.03;;;;;;;18.61;47.99;94741.09;5541231;26;19993;-83
2024/04/14 08:15:42;;;;;;;13.55;3.00;;;;;;;18.64;47.24;94749.31;5540656;25;19989;-84
2024/04/14 08:18:07;;;;;;;7.88;3.55;;;;;;;18.63;47.21;94752.34;5540817;25;20204;-79
2024/04/14 08:20:33;;;;;;;5.00;2.80;;;;;;;18.73;46.92;94749.16;5541481;26;19993;-80
2024/04/14 08:22:58;;;;;;;11.05;3.97;;;;;;;18.80;48.02;94745.91;5541195;26;19989;-79
2024/04/14 08:25:23;;;;;;;6.57;3.00;;;;;;;18.93;46.22;94739.31;5509518;26;20095;-79
2024/04/14 08:27:49;;;;;;;6.63;2.78;;;;;;;18.99;46.42;94746.06;5540681;26;19997;-79
2024/04/14 08:30:14;;;;;;;5.50;2.22;;;;;;;19.10;46.57;94743.63;5540690;26;19996;-80
2024/04/14 08:32:40;;;;;;;11.82;3.00;;;;;;;19.16;46.10;94736.84;5540872;26;19981;-79
2024/04/14 08:35:05;;;;;;;4.25;2.28;;;;;;;19.28;45.39;94735.22;5540891;26;19982;-80
2024/04/14 08:37:31;;;;;;;9.43;2.58;;;;;;;19.40;44.57;94743.25;5540226;26;19996;-79
2024/04/14 08:39:56;;;;;;;7.55;2.67;;;;;;;19.52;45.24;94728.84;5540175;26;19989;-79
2024/04/14 08:42:22;;;;;;;4.90;2.75;;;;;;;19.53;43.75;94733.91;5508502;26;19990;-79
2024/04/14 08:44:49;;;;;;;13.68;3.40;;;;;;;19.61;44.80;94735.66;5539795;26;19989;-79
2024/04/14 08:47:17;;;;;;;9.65;3.03;;;;;;;19.72;43.02;94733.25;5540361;26;19988;-79
2024/04/14 08:49:42;;;;;;;7.53;2.65;;;;;;;19.78;42.81;94737.28;5540539;25;19996;-79
2024/04/14 08:52:12;;;;;;;6.80;3.05;;;;;;;19.79;43.12;94738.06;5509028;26;19985;-80
2024/04/14 08:54:38;;;;;;;5.97;2.88;;;;;;;19.75;43.07;94735.25;5540845;26;19985;-80
2024/04/14 08:57:05;;;;;;;26.50;12.32;;;;;;;19.79;43.40;94728.00;5540773;25;20000;-80
2024/04/14 08:59:31;;;;;;;15.68;7.55;;;;;;;19.92;43.35;94730.63;5540703;25;19985;-81
2024/04/14 09:02:02;;;;;;;8.02;2.70;;;;;;;20.04;41.81;94727.81;5508708;26;19986;-78
2024/04/14 09:04:28;;;;;;;6.97;2.37;;;;;;;20.06;42.19;94736.34;5540419;25;19990;-78
2024/04/14 09:06:54;;;;;;;9.43;2.13;;;;;;;20.11;42.41;94727.97;5540521;25;20230;-79
2024/04/14 09:09:19;;;;;;;43.40;14.68;;;;;;;20.12;42.33;94721.41;5539035;26;20093;-79
2024/04/14 09:11:52;;;;;;;23.48;8.18;;;;;;;20.23;42.50;94725.16;5539770;25;20038;-80
2024/04/14 09:14:18;;;;;;;9.05;2.83;;;;;;;20.29;40.63;94731.06;5508291;26;19997;-79
2024/04/14 09:16:44;;;;;;;27.20;11.77;;;;;;;20.31;40.77;94717.16;5539981;25;19993;-79
2024/04/14 09:19:09;;;;;;;12.60;3.00;;;;;;;20.36;40.55;94725.81;5508366;26;20192;-80
2024/04/14 09:21:35;;;;;;;7.18;2.50;;;;;;;20.41;39.53;94716.63;5540117;26;20196;-80
2024/04/14 09:24:00;;;;;;;9.23;2.70;;;;;;;20.46;40.28;94720.97;5540144;25;19992;-80
2024/04/14 09:26:26;;;;;;;7.25;3.33;;;;;;;20.44;39.95;94713.22;5539689;25;19985;-80
2024/04/14 09:29:05;;;;;;;31.15;14.55;;;;;;;20.57;38.95;94705.72;5539745;26;19991;-81
2024/04/14 09:31:31;;;;;;;8.68;3.20;;;;;;;20.64;39.04;94709.41;5539998;26;19985;-79
2024/04/14 09:33:56;;;;;;;13.32;3.40;;;;;;;20.76;39.58;94696.84;5539872;26;20029;-80
2024/04/14 09:36:24;;;;;;;7.53;2.25;;;;;;;20.90;38.38;94707.16;5539842;25;20088;-80
2024/04/14 09:38:54;;;;;;;5.05;2.30;;;;;;;20.91;38.98;94704.13;5539905;25;19986;-80
2024/04/14 09:41:23;;;;;;;11.38;3.28;;;;;;;20.99;37.48;94689.56;5507875;26;19986;-80
2024/04/14 09:43:52;;;;;;;5.93;3.13;;;;;;;21.08;36.84;94696.66;5507751;26;19981;-80
2024/04/14 09:46:18;;;;;;;11.30;3.65;;;;;;;21.09;35.77;94690.91;5539773;26;20041;-81
2024/04/14 09:48:45;;;;;;;11.77;2.53;;;;;;;21.22;34.88;94688.78;5539336;25;20117;-79
2024/04/14 09:51:10;;;;;;;10.88;2.40;;;;;;;21.29;35.69;94680.78;5539638;26;19982;-78
2024/04/14 09:53:36;;;;;;;4.80;2.30;;;;;;;21.43;36.01;94686.50;5539645;25;20012;-79
2024/04/14 09:56:02;;;;;;;10.02;2.33;;;;;;;21.47;36.89;94686.53;5539160;25;19985;-78
2024/04/14 09:58:28;;;;;;;5.40;2.15;;;;;;;21.57;35.74;94679.72;5539075;25;20487;-79
2024/04/14 10:00:57;;;;;;;11.43;2.75;;;;;;;21.56;36.44;94684.38;5539427;25;20027;-82
2024/04/14 10:03:26;;;;;;;10.50;2.80;;;;;;;21.64;35.70;94679.84;5507699;26;19993;-81
2024/04/14 10:05:54;;;;;;;6.10;2.20;;;;;;;21.70;35.84;94681.09;5539948;25;20017;-86
2024/04/14 10:08:20;;;;;;;6.45;2.38;;;;;;;21.76;34.91;94662.59;5539813;25;20000;-87
2024/04/14 10:10:45;;;;;;;4.93;2.22;;;;;;;21.77;33.99;94656.78;5507594;26;20113;-83
2024/04/14 10:13:12;;;;;;;6.80;2.10;;;;;;;21.80;34.97;94671.56;5539231;26;19989;-84
2024/04/14 10:15:38;;;;;;;7.13;2.63;;;;;;;21.87;35.23;94660.81;5539230;25;19992;-84
2024/04/14 10:18:18;;;;;;;11.00;2.25;;;;;;;21.97;35.03;94659.41;5539206;25;20085;-82
2024/04/14 10:20:44;;;;;;;9.23;1.90;;;;;;;22.09;34.86;94648.31;5537075;26;19985;-85
2024/04/14 10:23:15;;;;;;;7.32;2.33;;;;;;;22.20;34.66;94646.50;5538072;26;19986;-85
2024/04/14 10:25:48;;;;;;;6.13;2.13;;;;;;;22.36;33.33;94659.16;5538753;26;19992;-85
2024/04/14 10:28:18;;;;;;;4.82;1.63;;;;;;;22.43;33.58;94641.03;5505995;26;19982;-85
2024/04/14 10:30:45;;;;;;;6.03;2.10;;;;;;;22.47;32.82;94643.00;5538099;25;19985;-84
2024/04/14 10:33:21;;;;;;;9.63;2.00;;;;;;;22.50;33.03;94628.69;5538512;25;19989;-84
2024/04/14 10:35:47;;;;;;;3.95;1.80;;;;;;;22.60;32.59;94631.53;5507359;26;20045;-86
2024/04/14 10:38:21;;;;;;;11.00;1.77;;;;;;;22.59;33.12;94616.38;5538557;25;19993;-85
2024/04/14 10:40:47;;;;;;;5.97;1.95;;;;;;;22.77;32.37;94618.50;5535924;26;20041;-86
2024/04/14 10:43:23;;;;;;;6.30;1.98;;;;;;;22.81;31.95;94624.75;5535268;26;19997;-85
2024/04/14 10:45:48;;;;;;;5.00;1.88;;;;;;;22.79;32.15;94621.63;5536046;26;20002;-86
2024/04/14 10:48:14;;;;;;;3.85;2.00;;;;;;;22.88;32.16;94621.31;5536422;25;20038;-86
2024/04/14 10:50:39;;;;;;;5.88;1.90;;;;;;;23.08;31.92;94616.50;5537108;26;20093;-85
2024/04/14 10:53:05;;;;;;;4.68;2.40;;;;;;;23.11;31.42;94621.97;5537693;26;19981;-85
2024/04/14 10:55:30;;;;;;;5.35;2.17;;;;;;;23.05;31.07;94615.31;5537698;26;19995;-86
2024/04/14 10:57:56;;;;;;;6.88;2.10;;;;;;;23.05;31.09;94609.88;5537585;25;20219;-86
2024/04/14 11:00:21;;;;;;;8.25;2.22;;;;;;;23.05;31.53;94603.66;5538008;26;19981;-86
2024/04/14 11:02:47;;;;;;;4.75;2.38;;;;;;;23.10;31.83;94603.31;5538137;26;20005;-86
2024/04/14 11:05:13;;;;;;;3.55;1.63;;;;;;;23.25;31.37;94617.81;5538576;26;19997;-86
2024/04/14 11:07:39;;;;;;;12.40;2.30;;;;;;;23.24;30.91;94603.44;5538510;25;19991;-85
2024/04/14 11:10:07;;;;;;;5.00;2.00;;;;;;;23.36;31.34;94605.09;5506794;26;20080;-86
2024/04/14 11:12:33;;;;;;;8.13;2.75;;;;;;;23.41;31.57;94597.38;5537959;25;19981;-85
2024/04/14 11:15:04;;;;;;;4.22;2.30;;;;;;;23.61;30.94;94602.53;5538140;26;20081;-84
2024/04/14 11:17:29;;;;;;;4.85;2.38;;;;;;;23.70;31.01;94585.91;5538133;26;20092;-85
2024/04/14 11:19:57;;;;;;;5.38;2.08;;;;;;;23.73;29.93;94587.84;5537808;25;19985;-85
2024/04/14 11:22:22;;;;;;;8.32;2.35;;;;;;;23.68;29.81;94589.00;5537787;26;20051;-85
2024/04/14 11:24:54;;;;;;;15.63;3.28;;;;;;;23.68;29.84;94588.22;5537483;26;19993;-84